Aérodrome :
LOGIN :

S'inscrire | Disclaimer

   EN    FR    IT 

 










Légende :    VFR   VFR Marginal   IFR   IFR Intensif   IFR Très Intensif
Visi : 
Plafond : 
>= 8 km
>= 3000ft
5 à 8 km
1000 à 3000 ft
1500m à 5 km
500 à 1000 ft
800 à 1500m
200 à 500 ft
< 800m
< 200 ft
Symboles :   Orages  Brouillard  Fortes neiges  Fortes précipitations  Vent > 20 kt
SIGMETs :   Divers  Orages  Givrage  Turbulence  Onde Orograph.  Cendres Volcan.







- Altitude de l'aérodrome : 17 ft
- Code IATA : GRQ


EHGG - Groningen Eelde

DERNIER METAR :
  • 212355Z AUTO 15008KT 110V180 9999 NSC 02/01 Q1008

METARs EXPIRÉS :
  • 212325Z AUTO 14007KT 100V170 9999 NSC 02/01 Q1009
  • 212255Z AUTO 14007KT 110V170 9999 NSC 02/01 Q1010
  • 212225Z AUTO 15007KT 120V180 9999 NSC 02/01 Q1011
  • 212155Z AUTO 16007KT 9999 FEW048 02/01 Q1011
  • 212125Z AUTO 16007KT 120V190 9999 NSC 02/01 Q1011 NOSIG

TAF TAF EHGG
Valide du 22 à 00h jusqu'au 23 à 06h UTC


212322Z 2200/2306 15010KT 9999 BKN045
BECMG 2201/2204 3000 -SNRA BKN007
PROB30
TEMPO 2201/2205 1200 -SN DZ BKN002
BECMG 2205/2208 18008KT 2000 -DZ BR
PROB40 2205/2212 BKN003
BECMG 2209/2212 27010KT 4000 BR
BECMG 2212/2215 9999 NSW SCT010 BKN015
BECMG 2221/2224 7000
BECMG 2302/2305 23007KT
PROB30 2302/2306 4000 BR BKN005
Pas de NOTAMs connus pour ce terrain.



MET'MAP, la Météo Aéronautique d'un coup d'oeil ! - Copyright ORBIFLY Décembre 2007 - Disclaimer

ORBIFLY MET'MAP TEAM :

Programmation & Développement : Alexandra Zaïnal
Conception & Développement : Baudouin d'Aumeries
Co-Programmation & Développement : Marc-Olivier Méhu
Soutien technique & logistique : Manuel Goepfert

Contact : metmap@orbifly.com




SOURCES & CREDITS :

   NOAA